Time;durP1;ratioP1;P1;durP2;ratioP2;P2;SDS_P1;SDS_P2;PMS_P1;PMS_P2;Temp;Humidity;BMP_temperature;BMP_pressure;BME280_temperature;BME280_humidity;BME280_pressure;Samples;Min_cycle;Max_cycle;Signal;HPM_P1;HPM_P2
2022/12/25 00:00:47;;;;;;;12.43;5.57;;;;;;;5.36;100.00;93097.03;2569576;23;20058;-84
2022/12/25 00:01:56;;;;;;;9.25;5.38;;;;;;;5.52;100.00;93086.75;2545273;23;20002;-84
2022/12/25 00:03:04;;;;;;;11.10;5.53;;;;;;;5.39;100.00;93098.91;2548284;23;20029;-84
2022/12/25 00:04:12;;;;;;;10.57;5.50;;;;;;;5.35;100.00;93096.25;2558678;23;20657;-85
2022/12/25 00:05:21;;;;;;;12.70;5.65;;;;;;;5.32;100.00;93096.28;2560717;23;20015;-85
2022/12/25 00:06:29;;;;;;;9.43;5.70;;;;;;;5.54;100.00;93098.50;2559159;23;20009;-85
2022/12/25 00:07:37;;;;;;;7.63;4.85;;;;;;;5.46;100.00;93099.66;2558982;23;20131;-85
2022/12/25 00:08:46;;;;;;;7.15;4.50;;;;;;;5.43;100.00;93092.44;2548061;23;20076;-85
2022/12/25 00:09:54;;;;;;;7.30;5.10;;;;;;;5.46;100.00;93085.63;2559096;23;20511;-85
2022/12/25 00:11:09;;;;;;;9.15;5.00;;;;;;;5.39;100.00;93091.69;2560028;23;20448;-85
2022/12/25 00:12:19;;;;;;;8.38;5.20;;;;;;;5.30;100.00;93091.34;2572611;23;20000;-84
2022/12/25 00:13:25;;;;;;;;;;;;;;;5.34;100.00;93086.78;2570695;23;20000;-84
2022/12/25 00:14:32;;;;;;;8.27;4.40;;;;;;;5.35;100.00;93083.00;2559646;23;20364;-84
2022/12/25 00:15:42;;;;;;;8.85;4.53;;;;;;;5.32;100.00;93089.09;2558958;23;20368;-85
2022/12/25 00:16:50;;;;;;;6.13;3.67;;;;;;;5.34;100.00;93073.53;2549224;23;20033;-85
2022/12/25 00:17:58;;;;;;;8.13;4.22;;;;;;;5.30;100.00;93073.56;2548312;23;20008;-82
2022/12/25 00:19:06;;;;;;;5.63;3.65;;;;;;;5.30;100.00;93080.75;2569242;23;20023;-83
2022/12/25 00:20:16;;;;;;;7.13;3.97;;;;;;;5.32;100.00;93081.13;2568716;23;20020;-85
2022/12/25 00:21:24;;;;;;;6.68;3.63;;;;;;;5.30;100.00;93078.09;2551510;23;20421;-85
2022/12/25 00:22:34;;;;;;;6.10;3.83;;;;;;;5.28;100.00;93078.50;2571710;23;20031;-84
2022/12/25 00:23:42;;;;;;;5.50;3.85;;;;;;;5.26;100.00;93077.34;2569559;23;20043;-84
2022/12/25 00:24:53;;;;;;;7.00;3.70;;;;;;;5.29;100.00;93077.34;2548056;23;20008;-84
2022/12/25 00:26:00;;;;;;;8.00;4.10;;;;;;;5.24;100.00;93069.03;2572287;23;20007;-84
2022/12/25 00:27:08;;;;;;;6.10;3.67;;;;;;;5.25;100.00;93068.66;2558669;23;20005;-84
2022/12/25 00:28:16;;;;;;;5.97;3.67;;;;;;;5.29;100.00;93071.28;2547827;23;20004;-84
2022/12/25 00:29:23;;;;;;;6.65;4.28;;;;;;;5.22;100.00;93063.34;2547263;23;20017;-84
2022/12/25 00:30:31;;;;;;;10.13;4.15;;;;;;;5.30;100.00;93072.78;2547627;23;20020;-83
2022/12/25 00:31:41;;;;;;;7.93;4.00;;;;;;;5.26;100.00;93075.44;2560187;23;20005;-84
2022/12/25 00:32:48;;;;;;;9.68;5.05;;;;;;;5.23;100.00;93072.84;2571343;23;20004;-84
2022/12/25 00:33:56;;;;;;;5.72;3.80;;;;;;;5.18;100.00;93076.63;2558392;23;20036;-84
2022/12/25 00:35:09;;;;;;;6.20;3.80;;;;;;;5.14;100.00;93077.78;2548357;23;20080;-85
2022/12/25 00:36:19;;;;;;;6.43;3.67;;;;;;;5.27;100.00;93073.59;2559825;23;20532;-84
2022/12/25 00:37:28;;;;;;;8.70;3.90;;;;;;;5.25;100.00;93073.94;2549157;23;20001;-84
2022/12/25 00:38:37;;;;;;;9.13;4.20;;;;;;;5.23;100.00;93072.84;2560661;23;20080;-82
2022/12/25 00:39:49;;;;;;;8.88;4.30;;;;;;;5.20;100.00;93076.25;2571542;23;20091;-83
2022/12/25 00:40:58;;;;;;;8.85;4.13;;;;;;;5.19;100.00;93077.38;2559867;23;20057;-83
2022/12/25 00:42:22;;;;;;;5.93;3.38;;;;;;;5.32;100.00;93069.78;2573686;22;20008;-84
2022/12/25 00:43:30;;;;;;;6.50;4.35;;;;;;;5.21;100.00;93078.50;2570152;23;20001;-84
2022/12/25 00:44:40;;;;;;;9.35;4.20;;;;;;;5.25;100.00;93070.53;2560649;23;20028;-84
2022/12/25 00:45:58;;;;;;;5.72;3.65;;;;;;;5.28;100.00;93075.09;2558935;23;20019;-83
2022/12/25 00:47:07;;;;;;;4.65;3.20;;;;;;;5.34;100.00;93076.19;2552630;23;20012;-83
2022/12/25 00:48:14;;;;;;;4.60;3.10;;;;;;;5.34;100.00;93078.09;2548153;23;19997;-82
2022/12/25 00:49:25;;;;;;;4.90;2.78;;;;;;;5.29;100.00;93079.25;2547384;23;20001;-85
2022/12/25 00:50:34;;;;;;;3.25;2.25;;;;;;;5.27;100.00;93074.34;2549141;23;20001;-83
2022/12/25 00:51:43;;;;;;;4.28;2.22;;;;;;;5.20;100.00;93070.94;2558886;23;20040;-82
2022/12/25 00:52:50;;;;;;;2.95;2.13;;;;;;;5.19;100.00;93067.53;2548324;23;20001;-84
2022/12/25 00:53:58;;;;;;;3.50;2.30;;;;;;;5.19;100.00;93067.53;2547742;23;20507;-84
2022/12/25 00:55:06;;;;;;;5.20;2.13;;;;;;;5.21;100.00;93075.84;2558633;23;20001;-83
2022/12/25 00:56:14;;;;;;;5.50;2.67;;;;;;;5.20;100.00;93074.34;2558869;23;20470;-85
2022/12/25 00:57:23;;;;;;;6.90;2.58;;;;;;;5.19;100.00;93080.78;2559822;23;19997;-83
2022/12/25 00:58:37;;;;;;;4.07;2.03;;;;;;;5.35;100.00;93072.41;2558653;23;20001;-85
2022/12/25 00:59:45;;;;;;;3.85;2.10;;;;;;;5.29;100.00;93072.03;2559836;23;20001;-84
2022/12/25 01:00:55;;;;;;;2.63;1.90;;;;;;;5.42;100.00;93080.34;2559998;23;20001;-87
2022/12/25 01:02:22;;;;;;;2.67;1.90;;;;;;;5.52;100.00;93071.59;2559263;23;20000;-83
2022/12/25 01:03:31;;;;;;;5.40;2.10;;;;;;;5.41;100.00;93073.53;2568084;23;20000;-86
2022/12/25 01:04:41;;;;;;;2.20;2.00;;;;;;;5.38;100.00;93079.59;2558624;23;20040;-83
2022/12/25 01:06:09;;;;;;;3.38;1.65;;;;;;;5.35;100.00;93080.34;2571725;23;20009;-83
2022/12/25 01:07:20;;;;;;;3.40;1.45;;;;;;;5.34;100.00;93072.78;2562968;23;20376;-83
2022/12/25 01:08:34;;;;;;;3.42;1.88;;;;;;;5.30;100.00;93075.44;2571861;23;20236;-83
2022/12/25 01:11:10;;;;;;;1.70;1.60;;;;;;;5.32;100.00;93064.47;2567018;23;20004;-83
2022/12/25 01:12:19;;;;;;;2.78;1.65;;;;;;;5.31;100.00;93063.69;2569651;23;20012;-84
2022/12/25 01:13:28;;;;;;;4.93;1.77;;;;;;;5.29;100.00;93066.00;2560918;23;20084;-85
2022/12/25 01:14:36;;;;;;;3.97;2.42;;;;;;;5.28;100.00;93070.53;2558913;23;20032;-84
2022/12/25 01:15:53;;;;;;;3.65;2.17;;;;;;;5.26;100.00;93072.06;2560328;23;20001;-83
2022/12/25 01:17:06;;;;;;;5.30;1.98;;;;;;;5.28;100.00;93061.84;2560470;23;20001;-83
2022/12/25 01:18:14;;;;;;;3.72;2.10;;;;;;;5.29;100.00;93071.28;2549905;23;20481;-84
2022/12/25 01:19:23;;;;;;;3.17;2.17;;;;;;;5.25;100.00;93075.84;2558859;23;20052;-84
2022/12/25 01:20:31;;;;;;;5.30;2.33;;;;;;;5.18;100.00;93075.84;2547926;23;20006;-84
2022/12/25 01:21:39;;;;;;;3.97;2.28;;;;;;;5.14;100.00;93081.19;2547701;23;20044;-85
2022/12/25 01:22:48;;;;;;;3.85;3.03;;;;;;;5.29;100.00;93074.69;2558562;23;20009;-83
2022/12/25 01:23:57;;;;;;;4.20;3.20;;;;;;;5.36;100.00;93079.22;2557300;23;20001;-84
2022/12/25 01:25:07;;;;;;;7.03;3.30;;;;;;;5.30;100.00;93086.03;2559257;23;20033;-83
2022/12/25 01:26:17;;;;;;;7.97;3.42;;;;;;;5.27;100.00;93090.22;2570493;23;20016;-84
2022/12/25 01:27:26;;;;;;;5.22;3.33;;;;;;;5.26;100.00;93083.41;2558943;23;20040;-84
2022/12/25 01:28:53;;;;;;;7.30;3.22;;;;;;;5.24;100.00;93096.28;2567469;23;20046;-83
2022/12/25 01:30:01;;;;;;;5.57;3.17;;;;;;;5.16;100.00;93086.09;2558734;23;20009;-84
2022/12/25 01:31:14;;;;;;;8.02;3.17;;;;;;;5.28;100.00;93083.78;2560065;23;20009;-85
2022/12/25 01:32:21;;;;;;;3.95;2.30;;;;;;;5.25;100.00;93094.38;2559340;23;20083;-84
2022/12/25 01:33:30;;;;;;;4.90;3.10;;;;;;;5.27;100.00;93092.13;2559577;23;20428;-85
2022/12/25 01:34:41;;;;;;;4.93;2.90;;;;;;;5.26;100.00;93094.00;2570964;23;20008;-84
2022/12/25 01:35:56;;;;;;;4.45;2.95;;;;;;;5.25;100.00;93087.19;2559391;23;20012;-83
2022/12/25 01:37:04;;;;;;;7.18;3.22;;;;;;;5.25;100.00;93092.50;2572758;23;20000;-84
2022/12/25 01:38:13;;;;;;;4.45;2.80;;;;;;;5.24;100.00;93095.53;2581747;23;20024;-83
2022/12/25 01:39:20;;;;;;;4.25;2.78;;;;;;;5.23;100.00;93101.97;2571101;23;20008;-86
2022/12/25 01:40:28;;;;;;;2.75;2.40;;;;;;;5.22;100.00;93097.78;2558362;23;20008;-83
2022/12/25 01:41:36;;;;;;;2.75;2.33;;;;;;;5.37;100.00;93093.25;2558354;23;20008;-83
2022/12/25 01:42:45;;;;;;;3.88;2.00;;;;;;;5.39;100.00;93094.34;2560082;23;20005;-85
2022/12/25 01:44:29;;;;;;;2.95;2.13;;;;;;;5.38;100.00;93084.91;2581831;23;20008;-84
2022/12/25 01:45:47;;;;;;;3.38;2.30;;;;;;;5.37;100.00;93093.25;2565759;23;20024;-85
2022/12/25 01:46:54;;;;;;;2.72;1.90;;;;;;;5.39;100.00;93098.91;2564248;23;20001;-86
2022/12/25 01:48:09;;;;;;;3.38;2.10;;;;;;;5.40;100.00;93097.75;2558426;23;20075;-84
2022/12/25 01:49:21;;;;;;;5.07;2.00;;;;;;;5.35;100.00;93096.25;2562950;23;20044;-85
2022/12/25 01:50:31;;;;;;;2.83;1.80;;;;;;;5.37;100.00;93094.00;2559308;23;20015;-85
2022/12/25 01:51:44;;;;;;;4.63;1.60;;;;;;;5.31;100.00;93090.19;2560462;23;20016;-83
2022/12/25 01:52:52;;;;;;;2.70;1.58;;;;;;;5.43;100.00;93091.69;2571906;23;20351;-84
2022/12/25 01:54:05;;;;;;;2.15;1.50;;;;;;;5.39;100.00;93089.06;2558583;23;20016;-85
2022/12/25 01:55:14;;;;;;;1.83;1.60;;;;;;;5.34;100.00;93086.78;2549433;23;20013;-84
2022/12/25 01:56:27;;;;;;;3.45;1.83;;;;;;;5.32;100.00;93088.34;2571177;23;20456;-83
2022/12/25 01:57:40;;;;;;;2.45;1.80;;;;;;;5.29;100.00;93087.19;2584666;22;20008;-85
2022/12/25 01:58:48;;;;;;;2.72;1.65;;;;;;;5.30;100.00;93081.50;2569226;23;20016;-86
2022/12/25 01:59:58;;;;;;;3.38;1.63;;;;;;;5.32;100.00;93088.34;2571201;23;20008;-83
2022/12/25 02:01:07;;;;;;;2.45;1.70;;;;;;;5.29;100.00;93098.53;2571109;23;20371;-84
2022/12/25 02:02:24;;;;;;;2.85;2.00;;;;;;;5.27;100.00;93102.72;2558754;23;20004;-83
2022/12/25 02:03:33;;;;;;;3.55;1.92;;;;;;;5.25;100.00;93091.75;2560497;23;20087;-84
2022/12/25 02:04:49;;;;;;;3.92;2.10;;;;;;;5.31;100.00;93092.84;2559909;23;20000;-84
2022/12/25 02:05:58;;;;;;;5.85;2.47;;;;;;;5.41;100.00;93105.34;2572717;23;20066;-84
2022/12/25 02:07:15;;;;;;;2.85;2.05;;;;;;;5.38;100.00;93105.34;2558751;23;20004;-83
2022/12/25 02:08:25;;;;;;;3.42;2.20;;;;;;;5.39;100.00;93098.91;2551315;23;20004;-86
2022/12/25 02:09:33;;;;;;;4.20;2.63;;;;;;;5.43;100.00;93100.41;2560817;23;20008;-85
2022/12/25 02:10:39;;;;;;;5.95;2.88;;;;;;;5.42;100.00;93100.78;2558480;23;20008;-86
2022/12/25 02:11:55;;;;;;;5.38;2.65;;;;;;;5.38;100.00;93102.69;2558723;23;20008;-83
2022/12/25 02:12:56;;;;;;;3.78;2.58;;;;;;;5.35;100.00;93098.91;2560204;23;20005;-85
2022/12/25 02:14:05;;;;;;;2.95;2.25;;;;;;;5.40;100.00;93098.53;2557145;23;20345;-85
2022/12/25 02:15:20;;;;;;;3.95;2.85;;;;;;;5.36;100.00;93104.97;2569178;23;20008;-85
2022/12/25 02:17:56;;;;;;;;;;;;;;;5.26;100.00;93107.25;2139943;27;20174;-85
2022/12/25 02:19:47;;;;;;;3.55;2.30;;;;;;;5.25;100.00;93099.69;2129849;27;20737;-88
2022/12/25 02:21:30;;;;;;;4.75;2.55;;;;;;;5.24;100.00;93092.88;2102505;28;20546;-83
2022/12/25 02:23:05;;;;;;;4.20;2.85;;;;;;;5.29;100.00;93089.84;2117421;28;20108;-85
2022/12/25 02:24:28;;;;;;;6.00;3.03;;;;;;;5.30;100.00;93086.03;2113085;28;20114;-84
2022/12/25 02:25:41;;;;;;;4.65;2.78;;;;;;;5.29;100.00;93093.25;2110562;28;20565;-83
2022/12/25 02:27:00;;;;;;;6.38;3.60;;;;;;;5.36;100.00;93087.19;2114624;28;20062;-84
2022/12/25 02:28:40;;;;;;;5.15;2.97;;;;;;;5.38;100.00;93092.84;2109613;28;20028;-84
2022/12/25 02:30:07;;;;;;;6.40;3.20;;;;;;;5.37;100.00;93086.03;2118003;28;20122;-85
2022/12/25 02:31:30;;;;;;;8.57;3.90;;;;;;;5.41;100.00;93086.78;2121545;28;20027;-84
2022/12/25 02:32:44;;;;;;;5.63;3.55;;;;;;;5.39;100.00;93088.28;2122113;27;20383;-84
2022/12/25 02:34:18;;;;;;;6.32;3.40;;;;;;;5.37;100.00;93080.75;2114554;28;20119;-83
2022/12/25 02:35:36;;;;;;;6.60;4.28;;;;;;;5.27;100.00;93084.19;2101406;27;20470;-83
2022/12/25 02:36:56;;;;;;;5.10;3.78;;;;;;;5.33;100.00;93087.19;2116846;27;20024;-85
2022/12/25 02:38:21;;;;;;;6.30;3.80;;;;;;;5.28;100.00;93083.78;2115993;28;20023;-84
2022/12/25 02:40:00;;;;;;;7.85;4.10;;;;;;;5.25;100.00;93083.78;2111390;28;20054;-84
2022/12/25 02:41:19;;;;;;;7.30;4.13;;;;;;;5.22;100.00;93081.91;2110301;28;20024;-83
2022/12/25 03:07:17;;;;;;;5.85;4.00;;;;;;;5.20;100.00;93063.75;2124999;27;20023;-83
2022/12/25 03:08:31;;;;;;;7.90;4.22;;;;;;;5.20;100.00;93074.34;2117568;28;20076;-83
2022/12/25 03:11:34;;;;;;;5.40;3.83;;;;;;;5.24;100.00;93077.00;2119561;27;20075;-83
2022/12/25 03:12:55;;;;;;;6.88;4.38;;;;;;;5.29;100.00;93066.75;2126555;27;20018;-85
2022/12/25 03:17:08;;;;;;;7.18;4.35;;;;;;;5.24;100.00;93071.69;2123861;27;20678;-83
2022/12/25 03:18:23;;;;;;;9.52;4.65;;;;;;;5.27;100.00;93076.22;2107198;28;20082;-83
2022/12/25 03:26:57;;;;;;;9.40;5.25;;;;;;;5.23;100.00;93064.88;2120632;28;20031;-85
2022/12/25 03:28:00;;;;;;;8.75;5.40;;;;;;;5.24;100.00;93063.75;2114242;28;20376;-84
2022/12/25 03:29:01;;;;;;;10.18;5.53;;;;;;;5.25;100.00;93065.25;2098531;28;20040;-83
2022/12/25 03:31:41;;;;;;;15.02;5.68;;;;;;;5.26;100.00;93051.59;2114444;28;20031;-82
2022/12/25 03:32:58;;;;;;;9.93;5.65;;;;;;;5.24;100.00;93043.28;2100900;28;20043;-85
2022/12/25 03:35:43;;;;;;;9.98;5.43;;;;;;;5.21;100.00;93053.91;2115287;27;20038;-84
2022/12/25 03:44:06;;;;;;;13.45;6.32;;;;;;;5.22;100.00;93052.75;2113140;28;20756;-84
2022/12/25 04:36:25;;;;;;;13.98;7.90;;;;;;;5.17;100.00;93024.00;2117108;27;20030;-87
2022/12/25 04:37:26;;;;;;;13.32;7.82;;;;;;;5.10;100.00;93024.78;2106126;28;20480;-86
2022/12/25 04:38:27;;;;;;;16.42;9.05;;;;;;;5.11;100.00;93014.94;2106170;28;20051;-86
2022/12/25 04:39:28;;;;;;;18.20;8.75;;;;;;;5.08;100.00;93018.34;2106006;28;20066;-84
2022/12/25 04:40:29;;;;;;;15.10;8.52;;;;;;;5.17;100.00;93022.09;2096867;28;20078;-83
2022/12/25 04:41:30;;;;;;;16.15;8.93;;;;;;;5.10;100.00;93024.78;2097744;28;20028;-84
2022/12/25 04:42:31;;;;;;;18.77;8.95;;;;;;;5.14;100.00;93024.78;2106163;28;20031;-86
2022/12/25 04:43:32;;;;;;;14.93;8.77;;;;;;;5.14;100.00;93020.25;2097823;28;20512;-87
2022/12/25 04:44:33;;;;;;;11.75;7.65;;;;;;;5.15;100.00;93021.00;2097817;28;20059;-84
2022/12/25 04:45:34;;;;;;;19.42;9.90;;;;;;;5.12;100.00;93016.44;2097724;28;20028;-85
2022/12/25 04:46:34;;;;;;;13.98;8.45;;;;;;;5.15;100.00;93021.75;2097803;28;20031;-83
2022/12/25 04:47:36;;;;;;;16.48;9.15;;;;;;;5.13;100.00;93021.34;2097921;28;20016;-84
2022/12/25 04:48:37;;;;;;;19.52;9.25;;;;;;;5.07;100.00;93020.25;2097750;28;20441;-83
2022/12/25 04:49:38;;;;;;;15.77;8.77;;;;;;;5.12;100.00;93016.44;2106082;28;20020;-84
2022/12/25 04:50:39;;;;;;;17.70;8.52;;;;;;;5.14;100.00;93017.59;2106066;28;20024;-84
2022/12/25 04:51:40;;;;;;;18.60;8.50;;;;;;;5.19;100.00;93016.44;2097666;28;20024;-83
2022/12/25 04:52:41;;;;;;;17.08;9.30;;;;;;;5.15;100.00;93023.66;2120852;27;20116;-83
2022/12/25 04:53:42;;;;;;;16.85;9.30;;;;;;;5.15;100.00;93018.34;2114474;28;20385;-84
2022/12/25 04:54:43;;;;;;;14.02;8.43;;;;;;;5.14;100.00;93014.19;2097713;28;20059;-83
2022/12/25 04:55:44;;;;;;;16.33;8.48;;;;;;;5.14;100.00;93019.50;2094909;28;20025;-82
2022/12/25 04:56:45;;;;;;;15.32;8.18;;;;;;;5.20;100.00;93017.94;2113044;28;20043;-83
2022/12/25 04:57:46;;;;;;;16.40;9.02;;;;;;;5.22;100.00;93019.09;2107210;28;20161;-82
2022/12/25 04:58:47;;;;;;;15.23;8.85;;;;;;;5.17;100.00;93014.16;2089284;28;20025;-83
2022/12/25 04:59:48;;;;;;;15.68;8.73;;;;;;;5.21;100.00;93003.56;2089471;28;20021;-84
2022/12/25 05:00:49;;;;;;;13.80;8.82;;;;;;;5.24;100.00;93005.44;2097514;28;20064;-82
2022/12/25 05:01:50;;;;;;;16.92;8.80;;;;;;;5.23;100.00;93007.34;2105891;28;20027;-84
2022/12/25 05:02:51;;;;;;;20.58;9.27;;;;;;;5.22;100.00;93007.72;2100949;28;20538;-81
2022/12/25 05:03:52;;;;;;;17.23;9.43;;;;;;;5.19;100.00;93011.91;2097451;28;20058;-83
2022/12/25 05:04:53;;;;;;;16.35;8.80;;;;;;;5.30;100.00;93011.84;2097566;28;20024;-85
2022/12/25 05:05:54;;;;;;;15.93;8.52;;;;;;;5.27;100.00;93009.97;2106065;28;20070;-83
2022/12/25 05:06:55;;;;;;;16.23;9.60;;;;;;;5.19;100.00;93011.91;2106046;28;20020;-83
2022/12/25 05:07:56;;;;;;;18.35;9.60;;;;;;;5.16;100.00;93006.59;2114466;28;20047;-84
2022/12/25 05:08:57;;;;;;;19.27;9.75;;;;;;;5.17;100.00;93008.09;2106066;28;20028;-82
2022/12/25 05:09:58;;;;;;;15.77;9.23;;;;;;;5.15;100.00;93010.41;2105940;28;20016;-86
2022/12/25 05:11:04;;;;;;;18.83;9.65;;;;;;;5.14;100.00;93009.66;2105963;28;20074;-86
2022/12/25 05:12:07;;;;;;;17.60;9.77;;;;;;;5.14;100.00;93012.28;2098930;28;20055;-84
2022/12/25 05:13:08;;;;;;;19.17;9.23;;;;;;;5.17;100.00;93016.81;2098279;28;20074;-84
2022/12/25 05:14:09;;;;;;;19.45;9.15;;;;;;;5.20;100.00;93008.09;2097462;28;20501;-84
2022/12/25 05:15:10;;;;;;;16.67;9.35;;;;;;;5.26;100.00;93011.09;2097502;28;20097;-85
2022/12/25 05:16:17;;;;;;;19.42;9.73;;;;;;;5.28;100.00;93016.78;2097520;28;20030;-88
2022/12/25 05:17:18;;;;;;;14.77;8.85;;;;;;;5.32;100.00;93017.53;2099153;28;20068;-88
2022/12/25 05:18:19;;;;;;;16.08;9.57;;;;;;;5.26;100.00;93006.56;2097525;28;20481;-83
2022/12/25 05:19:20;;;;;;;17.80;9.50;;;;;;;5.37;100.00;93001.22;2097751;28;20028;-84
2022/12/25 05:20:21;;;;;;;15.02;8.65;;;;;;;5.24;100.00;93000.13;2097562;28;20028;-86
2022/12/25 05:21:22;;;;;;;17.88;10.07;;;;;;;5.29;100.00;92997.09;2097360;28;20021;-84
2022/12/25 05:22:23;;;;;;;20.48;9.82;;;;;;;5.26;100.00;92993.31;2097666;28;20430;-83
2022/12/25 05:23:24;;;;;;;17.27;9.73;;;;;;;5.17;100.00;92995.59;2105881;28;20028;-85
2022/12/25 05:24:26;;;;;;;19.20;9.38;;;;;;;5.17;100.00;93002.81;2105705;28;20062;-86
2022/12/25 05:25:27;;;;;;;17.98;9.38;;;;;;;5.15;100.00;92997.16;2105692;28;20123;-83
2022/12/25 05:26:28;;;;;;;16.27;9.38;;;;;;;5.17;100.00;92998.25;2089116;28;20021;-83
2022/12/25 05:27:29;;;;;;;17.25;9.13;;;;;;;5.19;100.00;92988.03;2089097;28;20021;-86
2022/12/25 05:28:33;;;;;;;16.98;11.93;;;;;;;5.24;100.00;92995.59;2097666;28;20024;-86
2022/12/25 05:29:34;;;;;;;15.20;9.73;;;;;;;5.27;100.00;92997.47;2099633;28;20026;-86
2022/12/25 05:30:35;;;;;;;18.15;9.85;;;;;;;5.22;100.00;92989.16;2105725;28;20028;-84
2022/12/25 05:31:36;;;;;;;15.95;10.52;;;;;;;5.26;100.00;92982.69;2105634;28;20024;-84
2022/12/25 05:32:38;;;;;;;18.92;11.00;;;;;;;5.37;100.00;92987.22;2105692;28;20020;-83
2022/12/25 05:33:39;;;;;;;16.58;10.05;;;;;;;5.26;100.00;92985.34;2114160;28;20020;-82
2022/12/25 05:34:40;;;;;;;17.65;10.18;;;;;;;5.30;100.00;92985.34;2097308;28;20115;-84
2022/12/25 05:35:41;;;;;;;14.85;8.65;;;;;;;5.34;100.00;92983.44;2105825;28;20020;-84
2022/12/25 05:36:42;;;;;;;18.55;9.98;;;;;;;5.27;100.00;92986.13;2114151;28;20023;-84
2022/12/25 05:37:43;;;;;;;16.70;8.32;;;;;;;5.31;100.00;92984.19;2097256;28;20028;-83
2022/12/25 05:38:44;;;;;;;16.55;9.38;;;;;;;5.35;100.00;92992.13;2106066;27;20489;-83
2022/12/25 05:39:45;;;;;;;15.98;9.20;;;;;;;5.27;100.00;92988.78;2114189;28;20070;-83
2022/12/25 05:40:49;;;;;;;14.73;8.48;;;;;;;5.21;100.00;92983.09;2105774;28;20101;-83
2022/12/25 05:41:50;;;;;;;15.80;8.95;;;;;;;5.27;100.00;92980.84;2097879;28;20039;-85
2022/12/25 05:42:51;;;;;;;15.85;9.18;;;;;;;5.35;100.00;92984.94;2097565;28;20047;-83
2022/12/25 05:43:52;;;;;;;18.15;9.32;;;;;;;5.30;100.00;92980.03;2105691;28;20354;-83
2022/12/25 05:44:53;;;;;;;16.15;9.30;;;;;;;5.23;100.00;92977.44;2097376;28;20058;-84
2022/12/25 05:45:54;;;;;;;16.67;9.93;;;;;;;5.21;100.00;92972.50;2097523;28;20078;-84
2022/12/25 05:46:55;;;;;;;20.33;9.88;;;;;;;5.14;100.00;92974.44;2089092;28;20025;-84
2022/12/25 05:47:56;;;;;;;17.00;9.55;;;;;;;5.20;100.00;92972.91;2097419;28;20554;-83
2022/12/25 05:48:57;;;;;;;17.30;9.73;;;;;;;5.20;100.00;92978.94;2097435;28;20064;-84
2022/12/25 05:49:57;;;;;;;19.75;10.45;;;;;;;5.24;100.00;92973.66;2105691;28;20032;-85
2022/12/25 05:51:06;;;;;;;16.20;9.43;;;;;;;5.21;100.00;92977.81;2097252;28;20020;-85
2022/12/25 05:52:07;;;;;;;19.20;9.90;;;;;;;5.16;100.00;92966.84;2091163;28;20157;-81
2022/12/25 05:53:12;;;;;;;19.27;10.55;;;;;;;5.23;100.00;92972.13;2089182;28;20099;-84
2022/12/25 05:54:13;;;;;;;19.58;10.68;;;;;;;5.19;100.00;92971.41;2096183;28;20036;-82
2022/12/25 05:55:14;;;;;;;20.25;10.88;;;;;;;5.21;100.00;92977.06;2089121;28;20106;-85
2022/12/25 05:56:15;;;;;;;21.75;9.93;;;;;;;5.21;100.00;92972.50;2089154;28;20735;-83
2022/12/25 05:57:16;;;;;;;23.23;10.68;;;;;;;5.25;100.00;92973.25;2097271;28;20033;-83
2022/12/25 05:58:17;;;;;;;18.52;9.82;;;;;;;5.23;100.00;92977.44;2097161;28;20025;-83
2022/12/25 05:59:18;;;;;;;19.42;10.10;;;;;;;5.31;100.00;92978.91;2092025;28;20052;-84
2022/12/25 06:00:19;;;;;;;20.13;10.18;;;;;;;5.36;100.00;92972.47;2105622;28;20054;-85
2022/12/25 06:01:24;;;;;;;18.88;10.85;;;;;;;5.28;100.00;92975.13;2105455;28;20035;-84
2022/12/25 06:02:25;;;;;;;21.50;11.52;;;;;;;5.26;100.00;92971.34;2106197;28;20027;-83
2022/12/25 06:03:26;;;;;;;20.55;12.43;;;;;;;5.23;100.00;92972.13;2114051;28;20023;-84
2022/12/25 06:04:27;;;;;;;21.85;12.15;;;;;;;5.22;100.00;92971.38;2097307;28;20501;-83
2022/12/25 06:05:29;;;;;;;22.15;10.55;;;;;;;5.20;100.00;92972.91;2097203;28;20031;-84
2022/12/25 06:06:30;;;;;;;19.65;11.23;;;;;;;5.25;100.00;92964.56;2097762;28;20047;-85
2022/12/25 06:07:31;;;;;;;18.95;10.27;;;;;;;5.38;100.00;92967.53;2105631;28;20102;-82
2022/12/25 06:08:33;;;;;;;24.77;10.95;;;;;;;5.34;100.00;92966.78;2105586;28;20035;-86
2022/12/25 06:09:34;;;;;;;19.02;10.23;;;;;;;5.28;100.00;92966.44;2104478;28;20012;-83
2022/12/25 06:10:35;;;;;;;20.30;11.15;;;;;;;5.28;100.00;92974.38;2089055;28;20045;-83
2022/12/25 06:11:36;;;;;;;25.55;11.23;;;;;;;5.34;100.00;92972.84;2088880;28;20120;-85
2022/12/25 06:12:37;;;;;;;30.55;11.90;;;;;;;5.32;100.00;92975.13;2088831;28;20033;-84
2022/12/25 06:13:39;;;;;;;25.67;11.30;;;;;;;5.51;100.00;92974.66;2103365;28;20020;-85
2022/12/25 06:14:40;;;;;;;26.10;11.98;;;;;;;5.43;100.00;92967.13;2122491;28;20023;-84
2022/12/25 06:15:41;;;;;;;24.48;10.95;;;;;;;5.33;100.00;92967.94;2113950;28;20019;-84
2022/12/25 06:16:42;;;;;;;23.70;11.93;;;;;;;5.39;100.00;92961.06;2114172;28;20028;-82
2022/12/25 06:17:43;;;;;;;32.83;12.10;;;;;;;5.42;100.00;92955.75;2111193;28;20077;-85
2022/12/25 06:18:47;;;;;;;35.05;11.23;;;;;;;5.40;100.00;92959.94;2105546;28;20503;-83
2022/12/25 06:19:48;;;;;;;39.97;12.57;;;;;;;5.34;100.00;92967.53;2097649;28;20021;-84
2022/12/25 06:20:49;;;;;;;39.17;13.02;;;;;;;5.29;100.00;92965.28;2104903;28;20027;-83
2022/12/25 06:21:54;;;;;;;41.40;12.00;;;;;;;5.35;100.00;92965.63;2113882;28;20423;-84
2022/12/25 06:22:55;;;;;;;42.60;13.38;;;;;;;5.35;100.00;92965.63;2098343;28;20028;-84
2022/12/25 06:23:58;;;;;;;70.00;12.65;;;;;;;5.35;100.00;92977.00;2105474;28;20583;-84
2022/12/25 06:24:59;;;;;;;48.33;12.57;;;;;;;5.34;100.00;92972.84;2101106;28;20029;-83
2022/12/25 06:26:09;;;;;;;42.00;11.35;;;;;;;5.30;100.00;92972.09;2097176;28;20028;-84
2022/12/25 06:27:10;;;;;;;34.55;12.13;;;;;;;5.28;100.00;92967.19;2093403;28;20025;-84
2022/12/25 06:28:11;;;;;;;39.13;11.27;;;;;;;5.38;100.00;92970.19;2097175;28;20107;-83
2022/12/25 06:29:12;;;;;;;45.38;12.35;;;;;;;5.33;100.00;92970.59;2096974;28;20021;-83
2022/12/25 06:30:13;;;;;;;47.40;13.70;;;;;;;5.34;100.00;92966.78;2097179;28;20016;-83
2022/12/25 06:31:17;;;;;;;42.33;12.18;;;;;;;5.33;100.00;92960.72;2092788;28;20553;-83
2022/12/25 06:32:18;;;;;;;26.80;11.95;;;;;;;5.48;100.00;92966.72;2106404;28;20110;-83
2022/12/25 06:33:19;;;;;;;33.78;12.13;;;;;;;5.41;100.00;92967.50;2105494;28;20031;-82
2022/12/25 06:34:20;;;;;;;33.75;11.98;;;;;;;5.39;100.00;92982.28;2092893;28;20082;-84
2022/12/25 06:35:21;;;;;;;30.92;12.65;;;;;;;5.37;100.00;92972.06;2105416;28;20028;-84
2022/12/25 06:36:24;;;;;;;23.67;11.65;;;;;;;5.32;100.00;92966.44;2113760;28;20023;-83
2022/12/25 06:37:25;;;;;;;35.13;12.32;;;;;;;5.29;100.00;92970.59;2105615;28;20488;-84
2022/12/25 06:38:27;;;;;;;25.10;10.95;;;;;;;5.37;100.00;92980.03;2097253;28;20017;-84
2022/12/25 06:39:28;;;;;;;22.75;12.23;;;;;;;5.46;100.00;92985.66;2105500;28;20024;-84
2022/12/25 06:40:29;;;;;;;25.05;11.30;;;;;;;5.48;100.00;92982.63;2105572;28;20704;-85
2022/12/25 06:41:31;;;;;;;29.42;11.85;;;;;;;5.42;100.00;92982.28;2097440;28;20058;-84
2022/12/25 06:42:32;;;;;;;27.90;11.48;;;;;;;5.36;100.00;92969.81;2097317;28;20016;-85
2022/12/25 06:43:33;;;;;;;26.00;12.27;;;;;;;5.42;100.00;92978.88;2097223;28;20017;-85
2022/12/25 06:44:34;;;;;;;29.55;14.55;;;;;;;5.46;100.00;92980.34;2097051;28;20412;-84
2022/12/25 06:45:35;;;;;;;26.38;13.30;;;;;;;5.41;100.00;92980.75;2105472;28;20035;-84
2022/12/25 06:46:36;;;;;;;26.50;13.20;;;;;;;5.35;100.00;92982.28;2105431;28;20020;-84
2022/12/25 06:47:37;;;;;;;27.92;13.68;;;;;;;5.49;100.00;92979.59;2105483;28;20016;-86
2022/12/25 06:48:40;;;;;;;27.02;12.68;;;;;;;5.56;100.00;92982.19;2099359;28;20151;-85
2022/12/25 06:49:40;;;;;;;29.45;12.27;;;;;;;5.46;100.00;92979.59;2100174;28;20024;-84
2022/12/25 06:50:43;;;;;;;27.33;11.82;;;;;;;5.53;100.00;92979.56;2104457;28;20020;-84
2022/12/25 06:51:44;;;;;;;31.27;12.95;;;;;;;5.50;100.00;92983.00;2105002;28;20404;-87
2022/12/25 06:52:45;;;;;;;35.63;11.95;;;;;;;5.51;100.00;92987.16;2093835;28;20060;-82
2022/12/25 06:53:47;;;;;;;25.85;11.60;;;;;;;5.52;100.00;92973.50;2098979;28;20109;-85
2022/12/25 06:54:48;;;;;;;30.73;11.93;;;;;;;5.59;100.00;92979.94;2101084;28;20016;-83